Tropical Cyclones
[Index]
Season 2021-2022 Tropical Cyclone TIFFANY Track Map
Season 2021-2022 Summaries: [BoM-AU]
<<- Previous TC | BoM 2021-2022 Season | Next TC ->>

click for intensity scale information  Lat/long Grid: Show Hide

 Date Labels: Show Hide

Bureau of Meteorology Tropical Cyclone Data

Name: TIFFANY

08 Jan 2022 00:00 UTC to 17 Jan 2022 06:00 UTC

    date/time    lat    long    hPa   cat  kts
2022-01-08 00   11.9   147.5   1005         25          
2022-01-08 06   12.8   147.8   1004         25          
2022-01-08 12   13.2   147.9   1004         30          
2022-01-08 18   13.7   147.9   1002         30          
2022-01-09 00   14.0   147.1   1000         30          
2022-01-09 06   14.1   146.7    995    1    40          
2022-01-09 12   14.1   145.9    992    1    50          
2022-01-09 18   14.1   144.9    990    1    50          
2022-01-09 21   14.1   144.5    991    1    55          
2022-01-10 00   14.2   144.2    992    1    55          
2022-01-10 03   14.4   144.0    993    1    45          
2022-01-10 06   14.6   143.7    994    1    35          
2022-01-10 12   14.6   142.8   1003         30          
2022-01-10 18   14.5   141.5   1002         30          
2022-01-11 00   14.5   141.1   1000         35          
2022-01-11 06   15.1   139.7    998         35          
2022-01-11 12   14.9   138.2    995    1    50          
2022-01-11 18   14.8   136.7    992    1    50          
2022-01-12 00   14.6   135.5    988    1    50          
2022-01-12 06   14.5   133.7    992    1    35          
2022-01-12 12   14.9   132.6    998         30          
2022-01-12 18   15.1   131.6   1000         20          
2022-01-13 00   15.4   130.5   1002         15          
2022-01-13 06   15.5   129.4   1000         15          
2022-01-13 12   15.8   127.9   1000         15          
2022-01-13 18   16.0   126.8   1000         15          
2022-01-14 00   16.2   126.4   1000         15          
2022-01-14 06   16.8   125.7    999         15          
2022-01-14 12   17.1   125.4    998         15          
2022-01-14 18   17.4   125.1    998         15          
2022-01-15 00   17.9   125.0    997         15          
2022-01-15 06   18.8   124.8    997         20          
2022-01-15 12   19.7   125.0    998         20          
2022-01-15 18   21.0   125.6    998         20          
2022-01-16 00   21.8   126.3    992    1    25          
2022-01-16 06   23.3   127.3    992    1    25          
2022-01-16 12   24.1   127.9    992    1    25          
2022-01-16 18   24.7   128.4    992    1    25          
2022-01-17 00   25.3   129.0    992    1    30          
2022-01-17 06   26.0   129.9    992    1    30          
Winds are 10-min average.

Tropical cyclone tracks developed by Michael Bath using data from the Bureau of Meteorology and Google Maps.


Document: tropical_cyclone_tiffany.htm
Updated: 23 June 2022
[Australian Severe Weather index] [Copyright Notice] [Email Contacts] [Search This Site] [Privacy Policy]


Main Index Home Page Stock Weather Photos Extreme Storms Discussion Storm News and Storm Chasing Reports Tropical Cyclones / Hurricanes / Typhoons Weather Data and Links Wild Fires / Bushfires Weather Observation Techniques Weather Picture Catalogue Tornado Pictures and Reports Stock Video Footage and DVDs for sale